Flight Track Log - Related Links

Times and Time Zones

All times are in EST time to prevent confusion due to time zone crossing. See the UAL1116 flight status page for this flight to view local times or setup timezone preferences in your user account.

Time Position Orientation Groundspeed Altitude Reporting Facility
EST Latitude Longitude Course Direction KTS MPH feet Rate Location/Type
Fri 04:13:57 PM 40.7167 -74.1500 27° Northeast 164 189 1,400  Level New York TRACON
Fri 04:14:57 PM 40.7667 -74.1167 27° Northeast 239 275 3,300 1,701 Climbing New York TRACON
Fri 04:17:18 PM 40.8903 -73.9747 41° Northeast 306 352 7,100 1,881 Climbing Boston Center
Fri 04:18:18 PM 40.9356 -73.8794 58° Northeast 307 353 9,600 2,000 Climbing Boston Center
Fri 04:19:21 PM 40.9978 -73.7592 56° Northeast 331 381 11,200 2,274 Climbing Boston Center
Fri 04:20:22 PM 41.0619 -73.6564 50° Northeast 361 415 14,300 2,826 Climbing Boston Center
Fri 04:21:22 PM 41.1278 -73.5439 52° Northeast 383 441 16,900 1,835 Climbing Boston Center
Fri 04:22:23 PM 41.1708 -73.3975 69° East 398 458 18,000 1,935 Climbing Boston Center
Fri 04:23:26 PM 41.2092 -73.2694 68° East 389 448 20,900 1,452 Climbing Boston Center
Fri 04:24:27 PM 41.2486 -73.1314 69° East 400 460 21,000 50 Climbing Boston Center
Fri 04:25:27 PM 41.2925 -72.9814 69° East 427 491 21,000  Level Boston Center
Fri 04:26:30 PM 41.3350 -72.8344 69° East 426 490 21,000  Level Boston Center
Fri 04:27:31 PM 41.3792 -72.6756 70° East 449 517 21,000  Level Boston Center
Fri 04:28:32 PM 41.4239 -72.5158 69° East 457 526 21,000  Level Boston Center
Fri 04:29:33 PM 41.4686 -72.3592 69° East 453 521 21,000  Level Boston Center
Fri 04:30:33 PM 41.5122 -72.2017 70° East 455 524 21,000  Level Boston Center
Fri 04:31:34 PM 41.5622 -72.0211 70° East 457 526 21,000 -295 Level Boston Center
Fri 04:32:35 PM 41.6039 -71.8675 70° East 446 513 20,400 -836 Descending Boston Center
Fri 04:33:36 PM 41.6422 -71.7275 70° East 409 471 19,300 -1,306 Descending Boston Center
Fri 04:34:39 PM 41.6803 -71.5889 70° East 401 461 17,700 -2,049 Descending Boston Center
Fri 04:35:39 PM 41.7261 -71.4269 69° East 412 474 15,100 -2,132 Descending Boston Center
Fri 04:36:40 PM 41.7781 -71.3050 60° Northeast 380 437 13,400 -1,694 Descending Boston Center
Fri 04:37:43 PM 41.8283 -71.1878 60° Northeast 366 421 11,600 -1,180 Descending Boston Center
Fri 04:38:42 PM 41.8769 -71.0750 60° Northeast 353 406 11,000 -295 Descending Boston Center
Fri 04:39:45 PM 41.9275 -70.9569 60° Northeast 341 392 11,000  Level Boston Center
Fri 04:40:47 PM 41.9747 -70.8475 60° Northeast 341 392 11,000 -488 Level Boston Center
Fri 04:41:48 PM 42.0194 -70.7522 58° Northeast 335 386 10,000 -1,131 Descending Boston Center
Fri 04:42:49 PM 42.0756 -70.6675 48° Northeast 307 353 8,700 -1,339 Descending Boston Center
Fri 04:43:49 PM 42.1403 -70.6094 34° Northeast 291 335 7,300 -1,433 Descending Boston Center
Fri 04:45:03 PM 42.2500 -70.5833 10° North 273 314 5,500 -1,122 Descending KA90
Fri 04:45:52 PM 42.3000 -70.5667 14° North 248 285 5,000 -606 Descending KA90
Fri 04:46:52 PM 42.3667 -70.5833 350° North 204 235 4,400 -455 Descending KA90
Fri 04:48:04 PM 42.4167 -70.6167 334° Northwest 169 194 4,000 -182 Descending KA90
Fri 04:49:04 PM 42.4167 -70.6667 270° West 149 171 4,000 -53 Level KA90
Fri 04:49:57 PM 42.4106 -70.7128 260° West 149 171 3,900 -368 Descending Boston Center
Fri 04:50:58 PM 42.4003 -70.7669 256° West 148 170 3,300 -689 Descending Boston Center
Fri 04:51:59 PM 42.3919 -70.8214 258° West 148 170 2,500 -850 Descending Boston Center
Fri 04:52:58 PM 42.3833 -70.8833 259° West 145 167 1,600 -796 Descending KA90
Fri 04:53:52 PM 42.3667 -70.9167 236° Southwest 122 140 1,000 -700 Descending KA90
Fri 04:54:58 PM 42.3667 -70.9667 270° West 129 148 200 -727 Descending KA90

Login

Don't have an account? Register now (free) for customized features, flight alerts, and more!